Accueil
METAR-TAF:

METAR-TAF

Aéroports :

Aéroport international de Kota Kinabalu

Kota Kinabalu, Malaisie

latitude: 05-56N, longitude: 116-03E, altitude: 3 m

Observation

Le bulletin a été fait il y a 32 minutes, à 18:00 UTC
Vent 5 kt de est/sud-est, variant entre est et sud/sud-est
Température 26°C
Humidité 84%
Pression 1008 hPa
Visibilité 10 km ou plus
Quelques nuages à une hauteur de 1400 ft

METAR: WBKK 241800Z 11005KT 080V150 9999 FEW014 26/23 Q1008 NOSIG

Heure: 02:32 (18:32 UTC)

Prévision

Le bulletin a été fait il y a 1 heure et 32 minutes, à 17:00 UTC
Prévision valable du 24 à 18 UTC au 25 à 18 UTC
Vent 5 kt de est/sud-est
Visibilité 10 km ou plus
Quelques nuages à une hauteur de 1400 ft
orage, pluie,

TAF: WBKK 241700Z 2418/2518 11005KT 9999 TSRA FEW014

Observations et prévisions météorologiques de plus de 4000 aéroports (messages METAR et TAF).

Les stations disponibles sont représentées par des disques jaunes et rouges sur la carte.

Passer la souris dessus pour voir le nom de la station.

Cliquer dessus pour voir les observations et prévisions météorologiques.

Pour changer de carte: cliquez sur les boutons verts avec une croix noire pour zoomer, sur le bouton vert avec un tiret pour effectuer un zoom arrière, ou sur les flèches vertes pour les cartes adjacentes.


METAR-TAF: